Airfield :
LOGIN :

Register | Disclaimer

   EN    FR    IT 

 










Legend :    VFR   Marginal VFR   IFR   Intensive IFR   Very Intensive IFR
Visi :
Ceiling :
>= 8 km
>= 3000ft
5 to 8 km
1000 to 3000 ft
1500m to 5 km
500 to 1000 ft
800 to 1500m
200 to 500 ft
< 800m
< 200 ft
Symbols :   Thunderstorms  Fog  Heavy snow  Heavy precipitations  Wind > 20 kt
SIGMETs :     Misc.  Thunderstorms  Icing  Turbulence  Mountain Waves  Volcanic Ashes






- Airport Elevation : 648 ft
- IATA code : INI


LYNI - Nis Constantine

CURRENT METAR :
  • 291430Z 32015KT 9999 FEW040 19/08 Q1016 NOSIG

EXPIRED METARs :
  • 291400Z 31014KT 280V340 9999 SCT040 19/09 Q1016 NOSIG
  • 291330Z 32015KT 290V350 9999 SCT040 19/08 Q1016 NOSIG
  • 291300Z 32015KT 290V350 9999 SCT037 20/08 Q1016 NOSIG
  • 291230Z 32016KT 280V360 9999 SCT037 20/08 Q1016 NOSIG
  • 291200Z 32015KT 9999 SCT033 19/09 Q1017 NOSIG

TAF TAF LYNI
Valid from the 29 at 12:00 until the 30 at 12:00 UTC


291100Z 2912/3012 32017KT 9999 SCT033 TX19/2912Z TN09/3003Z
TEMPO 2912/2917 5000 TSRA FEW027CB BKN033
BECMG 2916/2918 30005KT
TEMPO 3003/3006 3000 BR BKN010
TEMPO 3010/3012 32015KT TS FEW027CB SCT033



MET'MAP, your aeronautical weather chart ! - Copyright ORBIFLY December 2007 - Disclaimer

ORBIFLY MET'MAP TEAM :

Programming & Development : Alexandra Zaïnal
Concept & original design : Baudouin d'Aumeries
Assistance for programming : Marc-Olivier Méhu
Technical & hardware support : Manuel Goepfert

Contact : metmap@orbifly.com




SOURCES & CREDITS :

   NOAA